sensor_id;sensor_type;location;lat;lon;timestamp;temperature;humidity
63051;SHT30;49136;47.416;19.402;2023-07-13T00:01:15;21.37;89.78
63051;SHT30;49136;47.416;19.402;2023-07-13T00:03:42;21.46;89.36
63051;SHT30;49136;47.416;19.402;2023-07-13T00:06:09;21.51;88.97
63051;SHT30;49136;47.416;19.402;2023-07-13T00:08:35;21.51;89.65
63051;SHT30;49136;47.416;19.402;2023-07-13T00:11:01;21.67;89.07
63051;SHT30;49136;47.416;19.402;2023-07-13T00:13:28;21.92;87.80
63051;SHT30;49136;47.416;19.402;2023-07-13T00:15:54;22.01;87.57
63051;SHT30;49136;47.416;19.402;2023-07-13T00:18:21;22.35;85.87
63051;SHT30;49136;47.416;19.402;2023-07-13T00:20:47;22.80;84.73
63051;SHT30;49136;47.416;19.402;2023-07-13T00:23:13;23.45;83.32
63051;SHT30;49136;47.416;19.402;2023-07-13T00:25:38;23.63;83.02
63051;SHT30;49136;47.416;19.402;2023-07-13T00:28:04;23.69;82.36
63051;SHT30;49136;47.416;19.402;2023-07-13T00:30:29;23.78;81.64
63051;SHT30;49136;47.416;19.402;2023-07-13T00:32:55;23.87;81.44
63051;SHT30;49136;47.416;19.402;2023-07-13T00:35:20;23.96;81.37
63051;SHT30;49136;47.416;19.402;2023-07-13T00:37:46;23.97;81.62
63051;SHT30;49136;47.416;19.402;2023-07-13T00:40:13;23.96;81.84
63051;SHT30;49136;47.416;19.402;2023-07-13T00:42:39;23.97;81.38
63051;SHT30;49136;47.416;19.402;2023-07-13T00:47:40;23.84;81.71
63051;SHT30;49136;47.416;19.402;2023-07-13T00:50:08;23.71;82.29
63051;SHT30;49136;47.416;19.402;2023-07-13T00:52:36;23.60;82.81
63051;SHT30;49136;47.416;19.402;2023-07-13T00:55:06;23.56;82.35
63051;SHT30;49136;47.416;19.402;2023-07-13T00:57:32;23.46;82.77
63051;SHT30;49136;47.416;19.402;2023-07-13T01:00:00;23.39;83.56
63051;SHT30;49136;47.416;19.402;2023-07-13T01:02:32;23.35;83.83
63051;SHT30;49136;47.416;19.402;2023-07-13T01:04:59;23.18;85.01
63051;SHT30;49136;47.416;19.402;2023-07-13T01:07:25;23.08;85.75
63051;SHT30;49136;47.416;19.402;2023-07-13T01:09:51;22.98;86.10
63051;SHT30;49136;47.416;19.402;2023-07-13T01:12:16;22.87;86.22
63051;SHT30;49136;47.416;19.402;2023-07-13T01:14:42;22.81;86.54
63051;SHT30;49136;47.416;19.402;2023-07-13T01:17:11;22.77;86.55
63051;SHT30;49136;47.416;19.402;2023-07-13T01:19:45;22.71;86.57
63051;SHT30;49136;47.416;19.402;2023-07-13T01:22:13;22.67;86.70
63051;SHT30;49136;47.416;19.402;2023-07-13T01:24:40;22.60;86.95
63051;SHT30;49136;47.416;19.402;2023-07-13T01:27:08;22.57;87.08
63051;SHT30;49136;47.416;19.402;2023-07-13T01:29:35;22.53;87.37
63051;SHT30;49136;47.416;19.402;2023-07-13T01:32:10;22.44;87.69
63051;SHT30;49136;47.416;19.402;2023-07-13T01:34:36;22.36;88.05
63051;SHT30;49136;47.416;19.402;2023-07-13T01:37:03;22.31;88.25
63051;SHT30;49136;47.416;19.402;2023-07-13T01:39:29;22.22;88.69
63051;SHT30;49136;47.416;19.402;2023-07-13T01:41:54;22.21;88.84
63051;SHT30;49136;47.416;19.402;2023-07-13T01:44:20;22.14;89.20
63051;SHT30;49136;47.416;19.402;2023-07-13T01:46:45;22.12;89.29
63051;SHT30;49136;47.416;19.402;2023-07-13T01:49:11;22.07;89.46
63051;SHT30;49136;47.416;19.402;2023-07-13T01:51:37;21.97;90.31
63051;SHT30;49136;47.416;19.402;2023-07-13T01:54:03;21.94;90.44
63051;SHT30;49136;47.416;19.402;2023-07-13T01:56:28;21.80;91.00
63051;SHT30;49136;47.416;19.402;2023-07-13T01:58:54;21.73;91.42
63051;SHT30;49136;47.416;19.402;2023-07-13T02:01:19;21.63;91.94
63051;SHT30;49136;47.416;19.402;2023-07-13T02:03:45;21.51;92.35
63051;SHT30;49136;47.416;19.402;2023-07-13T02:06:12;21.45;92.64
63051;SHT30;49136;47.416;19.402;2023-07-13T02:08:37;21.38;92.73
63051;SHT30;49136;47.416;19.402;2023-07-13T02:11:04;21.34;93.04
63051;SHT30;49136;47.416;19.402;2023-07-13T02:13:29;21.23;93.41
63051;SHT30;49136;47.416;19.402;2023-07-13T02:15:55;21.21;93.51
63051;SHT30;49136;47.416;19.402;2023-07-13T02:18:20;21.15;93.60
63051;SHT30;49136;47.416;19.402;2023-07-13T02:20:46;21.12;93.40
63051;SHT30;49136;47.416;19.402;2023-07-13T02:23:11;21.07;93.95
63051;SHT30;49136;47.416;19.402;2023-07-13T02:25:37;21.07;94.12
63051;SHT30;49136;47.416;19.402;2023-07-13T02:28:02;21.04;93.87
63051;SHT30;49136;47.416;19.402;2023-07-13T02:30:29;21.01;94.01
63051;SHT30;49136;47.416;19.402;2023-07-13T02:32:56;20.96;94.59
63051;SHT30;49136;47.416;19.402;2023-07-13T02:35:22;20.93;94.45
63051;SHT30;49136;47.416;19.402;2023-07-13T02:37:48;20.89;94.89
63051;SHT30;49136;47.416;19.402;2023-07-13T02:40:13;20.86;94.88
63051;SHT30;49136;47.416;19.402;2023-07-13T02:42:39;20.83;95.27
63051;SHT30;49136;47.416;19.402;2023-07-13T02:45:06;20.77;95.41
63051;SHT30;49136;47.416;19.402;2023-07-13T02:47:32;20.76;95.44
63051;SHT30;49136;47.416;19.402;2023-07-13T02:49:57;20.73;95.54
63051;SHT30;49136;47.416;19.402;2023-07-13T02:52:23;20.71;95.59
63051;SHT30;49136;47.416;19.402;2023-07-13T02:54:49;20.69;95.69
63051;SHT30;49136;47.416;19.402;2023-07-13T02:57:15;20.68;95.43
63051;SHT30;49136;47.416;19.402;2023-07-13T02:59:41;20.68;95.08
63051;SHT30;49136;47.416;19.402;2023-07-13T03:02:07;20.69;95.52
63051;SHT30;49136;47.416;19.402;2023-07-13T03:04:36;20.64;96.02
63051;SHT30;49136;47.416;19.402;2023-07-13T03:07:02;20.66;95.83
63051;SHT30;49136;47.416;19.402;2023-07-13T03:09:27;20.71;95.39
63051;SHT30;49136;47.416;19.402;2023-07-13T03:11:54;20.76;94.90
63051;SHT30;49136;47.416;19.402;2023-07-13T03:14:21;20.80;94.89
63051;SHT30;49136;47.416;19.402;2023-07-13T03:16:47;20.77;95.63
63051;SHT30;49136;47.416;19.402;2023-07-13T03:19:12;20.76;95.93
63051;SHT30;49136;47.416;19.402;2023-07-13T03:21:38;20.85;95.50
63051;SHT30;49136;47.416;19.402;2023-07-13T03:24:03;20.90;95.33
63051;SHT30;49136;47.416;19.402;2023-07-13T03:26:29;21.00;94.70
63051;SHT30;49136;47.416;19.402;2023-07-13T03:28:54;21.01;94.86
63051;SHT30;49136;47.416;19.402;2023-07-13T03:31:26;21.06;94.99
63051;SHT30;49136;47.416;19.402;2023-07-13T03:33:53;21.11;94.64
63051;SHT30;49136;47.416;19.402;2023-07-13T03:36:21;21.06;94.61
63051;SHT30;49136;47.416;19.402;2023-07-13T03:38:53;20.97;94.98
63051;SHT30;49136;47.416;19.402;2023-07-13T03:41:20;21.21;94.16
63051;SHT30;49136;47.416;19.402;2023-07-13T03:43:45;21.46;93.34
63051;SHT30;49136;47.416;19.402;2023-07-13T03:46:13;21.53;93.26
63051;SHT30;49136;47.416;19.402;2023-07-13T03:48:38;21.67;92.84
63051;SHT30;49136;47.416;19.402;2023-07-13T03:51:06;21.63;92.88
63051;SHT30;49136;47.416;19.402;2023-07-13T03:53:31;21.53;93.51
63051;SHT30;49136;47.416;19.402;2023-07-13T03:55:56;21.69;93.16
63051;SHT30;49136;47.416;19.402;2023-07-13T04:00:53;21.83;92.72
63051;SHT30;49136;47.416;19.402;2023-07-13T04:03:19;22.12;92.10
63051;SHT30;49136;47.416;19.402;2023-07-13T04:05:44;22.18;91.77
63051;SHT30;49136;47.416;19.402;2023-07-13T04:08:10;22.25;91.94
63051;SHT30;49136;47.416;19.402;2023-07-13T04:10:35;22.14;92.38
63051;SHT30;49136;47.416;19.402;2023-07-13T04:13:01;22.22;92.05
63051;SHT30;49136;47.416;19.402;2023-07-13T04:15:30;22.46;91.21
63051;SHT30;49136;47.416;19.402;2023-07-13T04:17:55;22.55;90.93
63051;SHT30;49136;47.416;19.402;2023-07-13T04:20:21;22.59;90.92
63051;SHT30;49136;47.416;19.402;2023-07-13T04:22:47;22.64;90.96
63051;SHT30;49136;47.416;19.402;2023-07-13T04:25:12;22.55;91.48
63051;SHT30;49136;47.416;19.402;2023-07-13T04:27:38;22.59;91.11
63051;SHT30;49136;47.416;19.402;2023-07-13T04:30:05;22.56;91.14
63051;SHT30;49136;47.416;19.402;2023-07-13T04:32:31;22.52;91.57
63051;SHT30;49136;47.416;19.402;2023-07-13T04:34:58;22.38;92.03
63051;SHT30;49136;47.416;19.402;2023-07-13T04:37:25;22.22;92.29
63051;SHT30;49136;47.416;19.402;2023-07-13T04:39:51;22.29;92.28
63051;SHT30;49136;47.416;19.402;2023-07-13T04:42:16;22.28;92.55
63051;SHT30;49136;47.416;19.402;2023-07-13T04:44:46;22.27;92.27
63051;SHT30;49136;47.416;19.402;2023-07-13T04:47:12;22.22;92.40
63051;SHT30;49136;47.416;19.402;2023-07-13T04:49:37;22.21;92.50
63051;SHT30;49136;47.416;19.402;2023-07-13T04:52:03;22.18;92.58
63051;SHT30;49136;47.416;19.402;2023-07-13T04:54:28;22.15;93.31
63051;SHT30;49136;47.416;19.402;2023-07-13T04:56:54;22.15;92.90
63051;SHT30;49136;47.416;19.402;2023-07-13T04:59:19;22.12;92.86
63051;SHT30;49136;47.416;19.402;2023-07-13T05:01:45;22.08;93.84
63051;SHT30;49136;47.416;19.402;2023-07-13T05:04:11;22.05;94.37
63051;SHT30;49136;47.416;19.402;2023-07-13T05:06:36;21.97;95.10
63051;SHT30;49136;47.416;19.402;2023-07-13T05:09:02;21.86;94.74
63051;SHT30;49136;47.416;19.402;2023-07-13T05:11:28;21.82;95.53
63051;SHT30;49136;47.416;19.402;2023-07-13T05:13:53;21.77;95.61
63051;SHT30;49136;47.416;19.402;2023-07-13T05:16:19;21.75;95.89
63051;SHT30;49136;47.416;19.402;2023-07-13T05:18:44;21.73;96.23
63051;SHT30;49136;47.416;19.402;2023-07-13T05:21:11;21.76;96.76
63051;SHT30;49136;47.416;19.402;2023-07-13T05:23:37;21.73;96.93
63051;SHT30;49136;47.416;19.402;2023-07-13T05:26:03;21.69;96.89
63051;SHT30;49136;47.416;19.402;2023-07-13T05:28:30;21.63;98.02
63051;SHT30;49136;47.416;19.402;2023-07-13T05:30:56;21.60;98.30
63051;SHT30;49136;47.416;19.402;2023-07-13T05:33:21;21.63;97.05
63051;SHT30;49136;47.416;19.402;2023-07-13T05:35:47;21.65;96.65
63051;SHT30;49136;47.416;19.402;2023-07-13T05:38:13;21.45;97.43
63051;SHT30;49136;47.416;19.402;2023-07-13T05:40:38;21.34;98.33
63051;SHT30;49136;47.416;19.402;2023-07-13T05:43:04;21.23;98.95
63051;SHT30;49136;47.416;19.402;2023-07-13T05:45:29;21.15;99.31
63051;SHT30;49136;47.416;19.402;2023-07-13T05:47:55;21.18;99.17
63051;SHT30;49136;47.416;19.402;2023-07-13T05:50:20;21.11;99.47
63051;SHT30;49136;47.416;19.402;2023-07-13T05:52:46;21.10;99.24
63051;SHT30;49136;47.416;19.402;2023-07-13T05:55:12;20.93;98.65
63051;SHT30;49136;47.416;19.402;2023-07-13T05:57:38;20.75;98.64
63051;SHT30;49136;47.416;19.402;2023-07-13T06:00:04;20.58;98.80
63051;SHT30;49136;47.416;19.402;2023-07-13T06:02:30;20.53;99.04
63051;SHT30;49136;47.416;19.402;2023-07-13T06:04:55;20.42;99.51
63051;SHT30;49136;47.416;19.402;2023-07-13T06:07:21;20.33;99.35
63051;SHT30;49136;47.416;19.402;2023-07-13T06:09:46;20.20;99.53
63051;SHT30;49136;47.416;19.402;2023-07-13T06:12:12;20.06;99.99
63051;SHT30;49136;47.416;19.402;2023-07-13T06:14:37;19.97;99.97
63051;SHT30;49136;47.416;19.402;2023-07-13T06:17:02;19.99;99.87
63051;SHT30;49136;47.416;19.402;2023-07-13T06:19:29;19.79;99.99
63051;SHT30;49136;47.416;19.402;2023-07-13T06:21:54;19.57;99.99
63051;SHT30;49136;47.416;19.402;2023-07-13T06:24:20;19.57;99.99
63051;SHT30;49136;47.416;19.402;2023-07-13T06:26:45;19.48;99.99
63051;SHT30;49136;47.416;19.402;2023-07-13T06:29:10;19.38;99.99
63051;SHT30;49136;47.416;19.402;2023-07-13T06:31:36;19.37;99.99
63051;SHT30;49136;47.416;19.402;2023-07-13T06:34:01;19.41;99.99
63051;SHT30;49136;47.416;19.402;2023-07-13T06:36:27;19.40;99.99
63051;SHT30;49136;47.416;19.402;2023-07-13T06:38:52;19.44;99.99
63051;SHT30;49136;47.416;19.402;2023-07-13T06:41:17;19.38;99.99
63051;SHT30;49136;47.416;19.402;2023-07-13T06:43:43;19.47;99.86
63051;SHT30;49136;47.416;19.402;2023-07-13T06:46:09;19.53;99.56
63051;SHT30;49136;47.416;19.402;2023-07-13T06:48:35;19.65;99.24
63051;SHT30;49136;47.416;19.402;2023-07-13T06:51:01;19.75;99.09
63051;SHT30;49136;47.416;19.402;2023-07-13T06:53:27;19.85;98.82
63051;SHT30;49136;47.416;19.402;2023-07-13T06:55:53;19.93;98.37
63051;SHT30;49136;47.416;19.402;2023-07-13T06:58:19;20.14;98.21
63051;SHT30;49136;47.416;19.402;2023-07-13T07:00:45;20.25;97.13
63051;SHT30;49136;47.416;19.402;2023-07-13T07:03:10;20.34;96.78
63051;SHT30;49136;47.416;19.402;2023-07-13T07:05:36;20.47;96.95
63051;SHT30;49136;47.416;19.402;2023-07-13T07:08:01;20.64;95.72
63051;SHT30;49136;47.416;19.402;2023-07-13T07:10:29;20.89;95.61
63051;SHT30;49136;47.416;19.402;2023-07-13T07:12:55;20.80;95.43
63051;SHT30;49136;47.416;19.402;2023-07-13T07:15:20;20.87;94.59
63051;SHT30;49136;47.416;19.402;2023-07-13T07:17:46;21.17;94.06
63051;SHT30;49136;47.416;19.402;2023-07-13T07:20:12;21.62;93.29
63051;SHT30;49136;47.416;19.402;2023-07-13T07:22:37;21.59;93.09
63051;SHT30;49136;47.416;19.402;2023-07-13T07:25:03;21.93;92.40
63051;SHT30;49136;47.416;19.402;2023-07-13T07:27:28;22.60;90.44
63051;SHT30;49136;47.416;19.402;2023-07-13T07:29:54;23.12;90.38
63051;SHT30;49136;47.416;19.402;2023-07-13T07:32:19;23.88;91.85
63051;SHT30;49136;47.416;19.402;2023-07-13T07:34:45;24.30;86.73
63051;SHT30;49136;47.416;19.402;2023-07-13T07:37:12;24.49;87.24
63051;SHT30;49136;47.416;19.402;2023-07-13T07:39:38;24.85;86.39
63051;SHT30;49136;47.416;19.402;2023-07-13T07:42:04;25.05;86.21
63051;SHT30;49136;47.416;19.402;2023-07-13T07:44:33;25.02;85.52
63051;SHT30;49136;47.416;19.402;2023-07-13T07:46:59;24.95;84.69
63051;SHT30;49136;47.416;19.402;2023-07-13T07:49:25;25.06;84.82
63051;SHT30;49136;47.416;19.402;2023-07-13T07:51:50;25.12;84.73
63051;SHT30;49136;47.416;19.402;2023-07-13T07:54:16;24.71;84.42
63051;SHT30;49136;47.416;19.402;2023-07-13T07:56:42;24.73;86.41
63051;SHT30;49136;47.416;19.402;2023-07-13T07:59:07;24.84;85.67
63051;SHT30;49136;47.416;19.402;2023-07-13T08:01:33;24.66;86.02
63051;SHT30;49136;47.416;19.402;2023-07-13T08:03:58;24.32;85.67
63051;SHT30;49136;47.416;19.402;2023-07-13T08:06:24;24.55;86.05
63051;SHT30;49136;47.416;19.402;2023-07-13T08:08:50;24.74;88.00
63051;SHT30;49136;47.416;19.402;2023-07-13T08:11:16;24.80;85.54
63051;SHT30;49136;47.416;19.402;2023-07-13T08:13:42;24.94;84.22
63051;SHT30;49136;47.416;19.402;2023-07-13T08:16:08;25.19;84.70
63051;SHT30;49136;47.416;19.402;2023-07-13T08:18:33;25.33;84.61
63051;SHT30;49136;47.416;19.402;2023-07-13T08:21:03;25.06;84.89
63051;SHT30;49136;47.416;19.402;2023-07-13T08:23:29;25.05;84.30
63051;SHT30;49136;47.416;19.402;2023-07-13T08:25:55;25.40;83.26
63051;SHT30;49136;47.416;19.402;2023-07-13T08:28:21;25.30;83.52
63051;SHT30;49136;47.416;19.402;2023-07-13T08:30:47;25.50;82.75
63051;SHT30;49136;47.416;19.402;2023-07-13T08:33:15;25.71;82.06
63051;SHT30;49136;47.416;19.402;2023-07-13T08:35:41;25.91;80.67
63051;SHT30;49136;47.416;19.402;2023-07-13T08:38:06;26.06;80.79
63051;SHT30;49136;47.416;19.402;2023-07-13T08:40:33;25.74;79.92
63051;SHT30;49136;47.416;19.402;2023-07-13T08:42:59;25.99;80.67
63051;SHT30;49136;47.416;19.402;2023-07-13T08:48:48;26.37;80.72
63051;SHT30;49136;47.416;19.402;2023-07-13T08:53:58;26.27;79.07
63051;SHT30;49136;47.416;19.402;2023-07-13T08:56:27;26.50;79.24
63051;SHT30;49136;47.416;19.402;2023-07-13T08:58:56;26.69;78.69
63051;SHT30;49136;47.416;19.402;2023-07-13T09:04:19;26.98;77.82
63051;SHT30;49136;47.416;19.402;2023-07-13T09:14:48;27.31;76.71
63051;SHT30;49136;47.416;19.402;2023-07-13T09:17:25;27.63;76.54
63051;SHT30;49136;47.416;19.402;2023-07-13T09:22:37;27.72;74.06
63051;SHT30;49136;47.416;19.402;2023-07-13T09:27:43;28.14;75.59
63051;SHT30;49136;47.416;19.402;2023-07-13T09:30:20;28.33;74.12
63051;SHT30;49136;47.416;19.402;2023-07-13T09:32:51;28.33;73.06
63051;SHT30;49136;47.416;19.402;2023-07-13T09:35:21;28.33;74.85
63051;SHT30;49136;47.416;19.402;2023-07-13T09:37:49;28.56;72.66
63051;SHT30;49136;47.416;19.402;2023-07-13T09:40:30;28.78;71.77
63051;SHT30;49136;47.416;19.402;2023-07-13T09:43:01;28.92;73.45
63051;SHT30;49136;47.416;19.402;2023-07-13T09:45:30;29.04;72.29
63051;SHT30;49136;47.416;19.402;2023-07-13T09:48:04;29.13;71.29
63051;SHT30;49136;47.416;19.402;2023-07-13T09:50:30;29.30;70.62
63051;SHT30;49136;47.416;19.402;2023-07-13T09:52:55;29.38;69.94
63051;SHT30;49136;47.416;19.402;2023-07-13T09:55:39;29.42;70.40
63051;SHT30;49136;47.416;19.402;2023-07-13T09:58:21;29.62;68.30
63051;SHT30;49136;47.416;19.402;2023-07-13T10:00:59;29.39;68.24
63051;SHT30;49136;47.416;19.402;2023-07-13T10:03:28;29.28;69.71
63051;SHT30;49136;47.416;19.402;2023-07-13T10:06:01;29.31;70.93
63051;SHT30;49136;47.416;19.402;2023-07-13T10:08:30;29.69;70.70
63051;SHT30;49136;47.416;19.402;2023-07-13T10:10:59;29.72;68.29
63051;SHT30;49136;47.416;19.402;2023-07-13T10:15:55;29.77;68.06
63051;SHT30;49136;47.416;19.402;2023-07-13T10:18:22;29.96;69.26
63051;SHT30;49136;47.416;19.402;2023-07-13T10:20:50;30.20;68.26
63051;SHT30;49136;47.416;19.402;2023-07-13T10:23:21;29.76;69.27
63051;SHT30;49136;47.416;19.402;2023-07-13T10:25:49;30.29;69.05
63051;SHT30;49136;47.416;19.402;2023-07-13T10:28:31;30.10;67.92
63051;SHT30;49136;47.416;19.402;2023-07-13T10:30:59;30.03;68.04
63051;SHT30;49136;47.416;19.402;2023-07-13T10:33:26;30.57;68.54
63051;SHT30;49136;47.416;19.402;2023-07-13T10:36:05;30.07;67.11
63051;SHT30;49136;47.416;19.402;2023-07-13T10:38:31;29.98;68.40
63051;SHT30;49136;47.416;19.402;2023-07-13T10:41:03;29.35;67.99
63051;SHT30;49136;47.416;19.402;2023-07-13T10:46:04;30.39;69.65
63051;SHT30;49136;47.416;19.402;2023-07-13T10:48:31;30.10;66.94
63051;SHT30;49136;47.416;19.402;2023-07-13T10:51:00;30.13;66.60
63051;SHT30;49136;47.416;19.402;2023-07-13T10:53:31;29.73;67.49
63051;SHT30;49136;47.416;19.402;2023-07-13T10:58:42;29.80;67.75
63051;SHT30;49136;47.416;19.402;2023-07-13T11:01:16;30.15;67.08
63051;SHT30;49136;47.416;19.402;2023-07-13T11:04:17;30.20;66.31
63051;SHT30;49136;47.416;19.402;2023-07-13T11:06:43;30.49;68.53
63051;SHT30;49136;47.416;19.402;2023-07-13T11:09:31;30.55;68.08
63051;SHT30;49136;47.416;19.402;2023-07-13T11:12:06;30.87;65.39
63051;SHT30;49136;47.416;19.402;2023-07-13T11:14:42;30.79;65.18
63051;SHT30;49136;47.416;19.402;2023-07-13T11:20:20;31.15;64.87
63051;SHT30;49136;47.416;19.402;2023-07-13T11:22:49;31.31;63.90
63051;SHT30;49136;47.416;19.402;2023-07-13T11:25:25;31.56;62.29
63051;SHT30;49136;47.416;19.402;2023-07-13T11:30:50;31.43;62.95
63051;SHT30;49136;47.416;19.402;2023-07-13T11:33:28;31.41;62.01
63051;SHT30;49136;47.416;19.402;2023-07-13T11:35:59;31.85;61.31
63051;SHT30;49136;47.416;19.402;2023-07-13T11:39:05;31.88;60.02
63051;SHT30;49136;47.416;19.402;2023-07-13T11:41:42;31.36;62.63
63051;SHT30;49136;47.416;19.402;2023-07-13T11:44:18;30.79;63.01
63051;SHT30;49136;47.416;19.402;2023-07-13T11:46:52;31.39;61.00
63051;SHT30;49136;47.416;19.402;2023-07-13T11:49:20;31.14;60.89
63051;SHT30;49136;47.416;19.402;2023-07-13T11:51:47;30.72;61.46
63051;SHT30;49136;47.416;19.402;2023-07-13T11:54:28;30.70;63.16
63051;SHT30;49136;47.416;19.402;2023-07-13T11:57:41;31.17;60.90
63051;SHT30;49136;47.416;19.402;2023-07-13T11:59:42;31.57;60.17
63051;SHT30;49136;47.416;19.402;2023-07-13T12:02:17;31.25;59.46
63051;SHT30;49136;47.416;19.402;2023-07-13T12:04:44;30.67;59.93
63051;SHT30;49136;47.416;19.402;2023-07-13T12:07:18;31.31;60.00
63051;SHT30;49136;47.416;19.402;2023-07-13T12:09:43;31.15;60.65
63051;SHT30;49136;47.416;19.402;2023-07-13T12:12:17;31.14;60.39
63051;SHT30;49136;47.416;19.402;2023-07-13T12:14:42;31.32;58.12
63051;SHT30;49136;47.416;19.402;2023-07-13T12:17:26;31.32;58.70
63051;SHT30;49136;47.416;19.402;2023-07-13T12:19:53;31.28;57.16
63051;SHT30;49136;47.416;19.402;2023-07-13T12:22:20;31.78;57.29
63051;SHT30;49136;47.416;19.402;2023-07-13T12:24:47;31.76;59.50
63051;SHT30;49136;47.416;19.402;2023-07-13T12:27:23;30.98;57.79
63051;SHT30;49136;47.416;19.402;2023-07-13T12:29:57;30.76;60.72
63051;SHT30;49136;47.416;19.402;2023-07-13T12:32:24;30.38;61.44
63051;SHT30;49136;47.416;19.402;2023-07-13T12:34:55;30.46;60.72
63051;SHT30;49136;47.416;19.402;2023-07-13T12:37:21;30.90;60.27
63051;SHT30;49136;47.416;19.402;2023-07-13T12:39:48;31.15;60.51
63051;SHT30;49136;47.416;19.402;2023-07-13T12:42:20;31.11;58.23
63051;SHT30;49136;47.416;19.402;2023-07-13T12:44:47;31.42;61.90
63051;SHT30;49136;47.416;19.402;2023-07-13T12:47:13;31.41;56.90
63051;SHT30;49136;47.416;19.402;2023-07-13T12:49:43;31.80;60.56
63051;SHT30;49136;47.416;19.402;2023-07-13T12:52:32;32.52;55.55
63051;SHT30;49136;47.416;19.402;2023-07-13T12:55:04;32.42;56.42
63051;SHT30;49136;47.416;19.402;2023-07-13T12:57:30;31.65;56.09
63051;SHT30;49136;47.416;19.402;2023-07-13T12:59:55;31.33;56.61
63051;SHT30;49136;47.416;19.402;2023-07-13T13:02:30;31.39;58.71
63051;SHT30;49136;47.416;19.402;2023-07-13T13:04:57;32.11;56.83
63051;SHT30;49136;47.416;19.402;2023-07-13T13:07:24;32.55;54.80
63051;SHT30;49136;47.416;19.402;2023-07-13T13:09:49;32.85;55.02
63051;SHT30;49136;47.416;19.402;2023-07-13T13:12:17;33.01;54.49
63051;SHT30;49136;47.416;19.402;2023-07-13T13:14:43;32.70;55.23
63051;SHT30;49136;47.416;19.402;2023-07-13T13:17:34;32.15;55.45
63051;SHT30;49136;47.416;19.402;2023-07-13T13:20:00;31.87;55.68
63051;SHT30;49136;47.416;19.402;2023-07-13T13:22:26;31.92;56.99
63051;SHT30;49136;47.416;19.402;2023-07-13T13:24:52;32.08;56.55
63051;SHT30;49136;47.416;19.402;2023-07-13T13:27:19;31.92;56.30
63051;SHT30;49136;47.416;19.402;2023-07-13T13:29:46;31.69;56.35
63051;SHT30;49136;47.416;19.402;2023-07-13T13:32:13;31.92;55.55
63051;SHT30;49136;47.416;19.402;2023-07-13T13:34:39;31.53;56.38
63051;SHT30;49136;47.416;19.402;2023-07-13T13:39:44;31.31;57.05
63051;SHT30;49136;47.416;19.402;2023-07-13T13:42:10;31.84;56.97
63051;SHT30;49136;47.416;19.402;2023-07-13T13:44:36;31.73;55.61
63051;SHT30;49136;47.416;19.402;2023-07-13T13:47:02;32.01;59.33
63051;SHT30;49136;47.416;19.402;2023-07-13T13:49:29;31.60;57.89
63051;SHT30;49136;47.416;19.402;2023-07-13T13:51:55;31.62;56.34
63051;SHT30;49136;47.416;19.402;2023-07-13T13:54:23;31.62;58.81
63051;SHT30;49136;47.416;19.402;2023-07-13T13:56:50;31.56;57.53
63051;SHT30;49136;47.416;19.402;2023-07-13T13:59:16;31.54;59.26
63051;SHT30;49136;47.416;19.402;2023-07-13T14:01:44;31.22;57.88
63051;SHT30;49136;47.416;19.402;2023-07-13T14:04:16;31.15;58.33
63051;SHT30;49136;47.416;19.402;2023-07-13T14:06:43;31.19;59.89
63051;SHT30;49136;47.416;19.402;2023-07-13T14:09:11;31.08;57.78
63051;SHT30;49136;47.416;19.402;2023-07-13T14:11:39;31.15;57.51
63051;SHT30;49136;47.416;19.402;2023-07-13T14:14:12;30.98;56.86
63051;SHT30;49136;47.416;19.402;2023-07-13T14:16:39;30.72;58.86
63051;SHT30;49136;47.416;19.402;2023-07-13T14:19:11;30.70;58.26
63051;SHT30;49136;47.416;19.402;2023-07-13T14:21:37;30.73;58.04
63051;SHT30;49136;47.416;19.402;2023-07-13T14:24:03;30.66;60.39
63051;SHT30;49136;47.416;19.402;2023-07-13T14:26:29;30.33;60.20
63051;SHT30;49136;47.416;19.402;2023-07-13T14:28:57;30.48;61.87
63051;SHT30;49136;47.416;19.402;2023-07-13T14:31:26;30.65;58.40
63051;SHT30;49136;47.416;19.402;2023-07-13T14:33:54;30.25;60.18
63051;SHT30;49136;47.416;19.402;2023-07-13T14:36:39;30.52;60.94
63051;SHT30;49136;47.416;19.402;2023-07-13T14:39:31;30.45;59.68
63051;SHT30;49136;47.416;19.402;2023-07-13T14:41:57;30.49;61.05
63051;SHT30;49136;47.416;19.402;2023-07-13T14:44:28;30.49;61.73
63051;SHT30;49136;47.416;19.402;2023-07-13T14:46:55;30.24;59.92
63051;SHT30;49136;47.416;19.402;2023-07-13T14:49:36;29.77;61.39
63051;SHT30;49136;47.416;19.402;2023-07-13T14:52:14;29.52;61.26
63051;SHT30;49136;47.416;19.402;2023-07-13T14:54:41;29.63;61.84
63051;SHT30;49136;47.416;19.402;2023-07-13T14:57:13;29.70;61.85
63051;SHT30;49136;47.416;19.402;2023-07-13T14:59:39;29.70;60.92
63051;SHT30;49136;47.416;19.402;2023-07-13T15:04:45;29.56;62.53
63051;SHT30;49136;47.416;19.402;2023-07-13T15:07:11;29.21;63.31
63051;SHT30;49136;47.416;19.402;2023-07-13T15:09:38;29.17;64.96
63051;SHT30;49136;47.416;19.402;2023-07-13T15:12:04;29.17;63.75
63051;SHT30;49136;47.416;19.402;2023-07-13T15:14:30;29.21;64.23
63051;SHT30;49136;47.416;19.402;2023-07-13T15:16:56;29.21;62.82
63051;SHT30;49136;47.416;19.402;2023-07-13T15:19:22;29.02;64.43
63051;SHT30;49136;47.416;19.402;2023-07-13T15:21:49;28.83;64.96
63051;SHT30;49136;47.416;19.402;2023-07-13T15:24:15;28.86;64.32
63051;SHT30;49136;47.416;19.402;2023-07-13T15:26:42;28.86;65.22
63051;SHT30;49136;47.416;19.402;2023-07-13T15:29:11;28.93;64.32
63051;SHT30;49136;47.416;19.402;2023-07-13T15:31:37;28.90;64.71
63051;SHT30;49136;47.416;19.402;2023-07-13T15:34:11;28.78;64.85
63051;SHT30;49136;47.416;19.402;2023-07-13T15:36:37;28.66;66.63
63051;SHT30;49136;47.416;19.402;2023-07-13T15:39:03;28.54;65.24
63051;SHT30;49136;47.416;19.402;2023-07-13T15:41:28;28.44;65.21
63051;SHT30;49136;47.416;19.402;2023-07-13T15:43:56;28.43;66.02
63051;SHT30;49136;47.416;19.402;2023-07-13T15:46:26;28.34;66.03
63051;SHT30;49136;47.416;19.402;2023-07-13T15:48:53;28.24;67.11
63051;SHT30;49136;47.416;19.402;2023-07-13T15:51:26;28.17;67.55
63051;SHT30;49136;47.416;19.402;2023-07-13T15:53:53;28.13;66.26
63051;SHT30;49136;47.416;19.402;2023-07-13T15:56:21;28.03;66.41
63051;SHT30;49136;47.416;19.402;2023-07-13T15:58:48;28.04;67.69
63051;SHT30;49136;47.416;19.402;2023-07-13T16:01:14;27.88;68.18
63051;SHT30;49136;47.416;19.402;2023-07-13T16:03:40;27.78;68.96
63051;SHT30;49136;47.416;19.402;2023-07-13T16:06:25;27.61;68.79